Terminal Aerodrome Forecast
Issued by NWS

Home | Current Version | Previous Version | Text Only | Print | Product List | Glossary On
Versions: 1 2 3 4 5 6 7 8 9 10 11 12 13 14 15 16 17 18 19 20 21 22 23 24 25
000
FTUS46 KMTR 050520
TAFSFO
TAF
KSFO 050520Z 0506/0612 28015KT P6SM FEW010
     FM050800 27006KT P6SM BKN010
     FM051100 27006KT P6SM OVC008
     FM051700 29008KT P6SM FEW008 SCT010
     FM052200 28015G24KT P6SM FEW012
     FM060400 28012KT P6SM FEW012=

USA.gov is the U.S. government's official web portal to all federal, state and local government web resources and services.